Time;durP1;ratioP1;P1;durP2;ratioP2;P2;SDS_P1;SDS_P2;PMS_P1;PMS_P2;Temp;Humidity;BMP_temperature;BMP_pressure;BME280_temperature;BME280_humidity;BME280_pressure;Samples;Min_cycle;Max_cycle;Signal;HPM_P1;HPM_P2
2023/02/14 00:00:20;;;;;;;9.47;6.47;;;6.20;99.90;5.90;102622.00;;;;4888819;28;91549;-68
2023/02/14 00:02:47;;;;;;;7.87;4.90;;;6.00;99.90;5.90;102628.00;;;;4892529;28;87928;-68
2023/02/14 00:05:13;;;;;;;10.10;6.03;;;6.00;99.90;5.80;102620.00;;;;4891335;28;99567;-68
2023/02/14 00:07:38;;;;;;;13.70;7.90;;;6.00;99.90;5.80;102622.00;;;;4889545;28;118066;-68
2023/02/14 00:10:05;;;;;;;13.40;6.23;;;6.00;99.90;5.80;102620.00;;;;4890259;28;116122;-68
2023/02/14 00:12:31;;;;;;;12.47;6.17;;;6.00;99.90;5.80;102620.00;;;;4894353;28;101678;-68
2023/02/14 00:17:41;;;;;;;6.00;5.20;;;6.40;99.90;5.80;102622.00;;;;4893094;28;87748;-69
2023/02/14 00:20:07;;;;;;;12.03;6.00;;;6.00;99.90;5.80;102622.00;;;;4887412;28;116588;-68
2023/02/14 00:22:32;;;;;;;15.10;7.83;;;6.00;99.90;5.80;102622.00;;;;4889865;28;88882;-68
2023/02/14 00:24:58;;;;;;;9.60;7.10;;;6.00;99.90;5.90;102618.00;;;;4891786;28;109499;-68
2023/02/14 00:27:24;;;;;;;13.97;7.70;;;6.00;99.90;5.90;102624.00;;;;4886440;28;117710;-69
2023/02/14 00:29:49;;;;;;;10.63;7.27;;;6.10;99.90;5.90;102620.00;;;;4888110;28;117655;-69
2023/02/14 00:32:15;;;;;;;11.13;7.17;;;6.60;99.90;5.80;102609.00;;;;4887633;28;88005;-69
2023/02/14 00:34:41;;;;;;;11.97;6.13;;;6.60;99.90;5.80;102605.00;;;;4895262;28;107997;-69
2023/02/14 00:37:06;;;;;;;13.40;7.70;;;6.00;99.90;5.80;102612.00;;;;4897530;28;105605;-69
2023/02/14 00:39:32;;;;;;;10.30;6.10;;;6.60;99.90;5.80;102608.00;;;;4892599;28;117411;-69
2023/02/14 00:41:58;;;;;;;10.13;6.70;;;6.60;99.90;5.80;102601.00;;;;4893729;28;104603;-68
2023/02/14 00:44:24;;;;;;;10.60;5.67;;;5.90;99.90;5.80;102605.00;;;;4894090;28;87779;-68
2023/02/14 00:46:49;;;;;;;11.43;5.60;;;5.90;99.90;5.80;102608.00;;;;4893269;28;92462;-70
2023/02/14 00:49:15;;;;;;;12.37;7.10;;;5.90;99.90;5.70;102620.00;;;;4894247;28;118613;-68
2023/02/14 00:51:41;;;;;;;9.90;6.87;;;6.00;99.90;5.70;102608.00;;;;4893439;28;109348;-70
2023/02/14 00:54:07;;;;;;;13.60;6.90;;;5.90;99.90;5.70;102612.00;;;;4896543;28;87699;-68
2023/02/14 00:56:32;;;;;;;11.73;7.23;;;5.90;99.90;5.70;102614.00;;;;4900775;28;88469;-70
2023/02/14 00:58:58;;;;;;;10.63;6.60;;;5.90;99.90;5.70;102615.00;;;;4894451;28;118054;-68
2023/02/14 01:01:24;;;;;;;8.30;6.27;;;6.40;99.90;5.70;102614.00;;;;4894237;28;87841;-69
2023/02/14 01:03:50;;;;;;;11.53;6.70;;;5.80;99.90;5.70;102603.00;;;;4897807;28;87330;-69
2023/02/14 01:06:15;;;;;;;10.60;6.30;;;6.10;99.90;5.70;102605.00;;;;4895185;28;104729;-69
2023/02/14 01:08:41;;;;;;;11.03;5.50;;;5.90;99.90;5.70;102594.00;;;;4894804;28;117025;-69
2023/02/14 01:11:14;;;;;;;8.63;5.87;;;5.40;99.90;5.80;102601.00;;;;4908235;28;109839;-69
2023/02/14 01:13:41;;;;;;;10.33;5.93;;;6.40;99.90;5.80;102607.00;;;;4893259;28;100779;-68
2023/02/14 01:16:11;;;;;;;10.23;6.13;;;6.00;99.90;5.80;102614.00;;;;4897333;28;108897;-68
2023/02/14 01:18:37;;;;;;;8.50;5.63;;;6.00;99.90;5.80;102613.00;;;;4896337;28;109771;-68
2023/02/14 01:21:28;;;;;;;6.63;5.33;;;6.80;99.90;5.70;102602.00;;;;4896044;28;87932;-68
2023/02/14 01:23:57;;;;;;;10.00;5.97;;;6.00;99.90;5.70;102597.00;;;;4891289;28;99762;-68
2023/02/14 01:26:25;;;;;;;10.10;5.97;;;5.90;99.90;5.70;102595.00;;;;4896721;28;89333;-68
2023/02/14 01:28:50;;;;;;;10.00;6.77;;;6.50;99.90;5.70;102595.00;;;;4893990;28;92451;-69
2023/02/14 01:31:20;;;;;;;9.73;6.03;;;6.00;99.90;5.70;102584.00;;;;4893259;28;110605;-68
2023/02/14 01:33:47;;;;;;;6.03;5.40;;;5.90;99.90;5.70;102590.00;;;;4895243;28;88322;-68
2023/02/14 01:36:22;;;;;;;7.43;5.70;;;6.20;99.90;5.60;102590.00;;;;4894720;28;89606;-69
2023/02/14 01:38:52;;;;;;;13.33;5.83;;;5.80;99.90;5.60;102596.00;;;;4905729;28;88023;-69
2023/02/14 01:41:19;;;;;;;7.83;5.57;;;5.80;99.90;5.60;102589.00;;;;4895154;28;87816;-69
2023/02/14 01:44:14;;;;;;;9.03;5.13;;;5.80;99.90;5.50;102575.00;;;;4893309;28;88055;-69
2023/02/14 01:46:42;;;;;;;7.00;4.60;;;5.80;99.90;5.60;102580.00;;;;4893444;28;88128;-69
2023/02/14 01:49:20;;;;;;;11.37;5.77;;;6.30;99.90;5.60;102580.00;;;;4889806;28;87957;-69
2023/02/14 01:51:59;;;;;;;11.20;5.80;;;5.80;99.90;5.60;102580.00;;;;4895317;28;104434;-69
2023/02/14 01:54:27;;;;;;;9.60;6.67;;;6.40;99.90;5.60;102566.00;;;;4908547;28;102005;-69
2023/02/14 01:56:59;;;;;;;8.63;5.00;;;5.80;99.90;5.60;102582.00;;;;4889773;28;110668;-69
2023/02/14 01:59:30;;;;;;;11.47;5.90;;;5.80;99.90;5.60;102578.00;;;;4887996;28;110207;-69
2023/02/14 02:01:56;;;;;;;7.00;5.60;;;6.10;99.90;5.60;102576.00;;;;4892382;28;102648;-69
2023/02/14 02:04:30;;;;;;;7.33;5.00;;;5.80;99.90;5.60;102578.00;;;;4894301;28;107467;-70
2023/02/14 02:07:01;;;;;;;8.63;5.87;;;5.90;99.90;5.60;102579.00;;;;4890831;28;99883;-69
2023/02/14 02:09:46;;;;;;;7.50;4.97;;;6.60;99.90;5.60;102572.00;;;;4892788;28;98303;-69
2023/02/14 02:12:12;;;;;;;7.87;4.67;;;5.90;99.90;5.70;102573.00;;;;4891718;28;101909;-69
2023/02/14 02:14:39;;;;;;;6.87;4.70;;;5.80;99.90;5.70;102569.00;;;;4890627;28;108041;-69
2023/02/14 02:17:36;;;;;;;10.10;5.73;;;5.90;99.90;5.70;102569.00;;;;4891210;28;87825;-70
2023/02/14 02:20:35;;;;;;;9.80;5.87;;;6.60;99.90;5.70;102577.00;;;;4909703;28;89780;-69
2023/02/14 02:23:59;;;;;;;9.60;5.33;;;5.90;99.90;5.70;102572.00;;;;4901930;28;101124;-69
2023/02/14 02:27:05;;;;;;;9.20;5.43;;;5.90;99.90;5.70;102571.00;;;;4895861;28;87791;-69
2023/02/14 02:30:15;;;;;;;12.47;5.93;;;6.00;99.90;5.70;102567.00;;;;4892896;28;110664;-69
2023/02/14 02:33:19;;;;;;;8.43;6.00;;;6.50;99.90;5.70;102561.00;;;;4874238;28;89439;-69
2023/02/14 02:36:07;;;;;;;8.00;4.77;;;6.00;99.90;5.70;102572.00;;;;4892973;28;94952;-69
2023/02/14 02:39:02;;;;;;;7.93;5.63;;;6.00;99.90;5.70;102569.00;;;;4910355;28;88079;-69
2023/02/14 02:42:20;;;;;;;10.67;5.93;;;5.90;99.90;5.60;102564.00;;;;4908918;28;94439;-69
2023/02/14 02:44:57;;;;;;;8.03;5.50;;;5.90;99.90;5.60;102568.00;;;;4908641;28;101321;-69
2023/02/14 02:47:36;;;;;;;7.63;5.33;;;5.80;99.90;5.60;102567.00;;;;4896482;28;89392;-70
2023/02/14 02:53:49;;;;;;;11.70;6.20;;;5.70;99.90;5.50;102565.00;;;;4905067;28;88324;-69
2023/02/14 02:56:44;;;;;;;10.13;6.03;;;5.70;99.90;5.50;102565.00;;;;4907427;28;88097;-69
2023/02/14 02:59:34;;;;;;;11.33;5.80;;;5.80;99.90;5.50;102564.00;;;;4902588;28;89095;-69
2023/02/14 03:02:20;;;;;;;8.03;5.67;;;5.70;99.90;5.50;102572.00;;;;4905038;28;102033;-69
2023/02/14 03:04:56;;;;;;;10.07;5.10;;;6.00;99.90;5.50;102558.00;;;;4905838;28;106738;-69
2023/02/14 03:07:38;;;;;;;7.20;5.17;;;5.70;99.90;5.50;102571.00;;;;4894671;28;110992;-69
2023/02/14 03:10:06;;;;;;;7.97;4.90;;;6.40;99.90;5.50;102573.00;;;;4895751;28;88151;-69
2023/02/14 03:12:39;;;;;;;7.93;5.70;;;5.70;99.90;5.50;102569.00;;;;4892601;28;87853;-69
2023/02/14 03:15:48;;;;;;;7.03;4.03;;;5.70;99.90;5.50;102558.00;;;;4892980;28;88132;-69
2023/02/14 03:22:33;;;;;;;6.17;5.23;;;5.80;99.90;5.50;102561.00;;;;4908244;28;87947;-69
2023/02/14 03:25:19;;;;;;;9.83;6.27;;;5.80;99.90;5.50;102560.00;;;;4889511;28;87999;-69
2023/02/14 03:27:53;;;;;;;8.07;4.73;;;6.10;99.90;5.50;102561.00;;;;4904393;28;109264;-69
2023/02/14 03:31:00;;;;;;;10.17;5.70;;;5.80;99.90;5.50;102573.00;;;;4893146;28;110797;-69
2023/02/14 03:33:46;;;;;;;11.50;6.43;;;5.80;99.90;5.60;102574.00;;;;4908242;28;102610;-69
2023/02/14 03:36:20;;;;;;;6.20;5.57;;;5.80;99.90;5.60;102575.00;;;;4893186;28;87813;-69
2023/02/14 03:38:51;;;;;;;11.37;6.13;;;5.80;99.90;5.50;102572.00;;;;4921242;28;87905;-70
2023/02/14 03:41:27;;;;;;;10.13;6.07;;;5.70;99.90;5.60;102566.00;;;;4918008;28;113078;-69
2023/02/14 03:44:01;;;;;;;9.63;5.13;;;6.40;99.90;5.50;102564.00;;;;4924888;28;88062;-69
2023/02/14 03:46:52;;;;;;;12.63;6.10;;;6.50;99.90;5.50;102571.00;;;;4894400;28;87349;-69
2023/02/14 03:49:23;;;;;;;8.87;5.37;;;5.80;99.90;5.50;102570.00;;;;4907335;28;88399;-69
2023/02/14 03:51:51;;;;;;;9.63;5.47;;;5.70;99.90;5.50;102569.00;;;;4902845;28;107177;-69
2023/02/14 03:54:19;;;;;;;6.23;4.50;;;5.80;99.90;5.50;102574.00;;;;4891617;28;103326;-69
2023/02/14 03:56:49;;;;;;;8.40;5.53;;;5.70;99.90;5.50;102583.00;;;;4905934;28;108217;-69
2023/02/14 03:59:20;;;;;;;5.87;4.23;;;6.20;99.90;5.50;102582.00;;;;4892272;28;106193;-69
2023/02/14 04:02:01;;;;;;;13.37;5.73;;;6.40;99.90;5.50;102577.00;;;;4891789;28;97214;-69
2023/02/14 04:04:34;;;;;;;6.87;5.80;;;5.80;99.90;5.60;102576.00;;;;4922782;28;102819;-69
2023/02/14 04:07:09;;;;;;;9.30;4.53;;;5.70;99.90;5.50;102579.00;;;;4907946;28;88072;-69
2023/02/14 04:09:34;;;;;;;5.67;4.13;;;6.50;99.90;5.50;102579.00;;;;4905337;28;88413;-69
2023/02/14 04:12:00;;;;;;;9.10;5.80;;;5.80;99.90;5.50;102575.00;;;;4898463;28;117124;-68
2023/02/14 04:14:28;;;;;;;6.63;4.77;;;5.70;99.90;5.50;102574.00;;;;4899099;28;110896;-69
2023/02/14 04:19:38;;;;;;;7.50;4.33;;;5.80;99.90;5.50;102562.00;;;;4893988;28;88735;-69
2023/02/14 04:22:04;;;;;;;7.90;4.30;;;5.70;99.90;5.50;102563.00;;;;4894681;28;118270;-69
2023/02/14 04:24:29;;;;;;;7.70;5.27;;;5.60;99.90;5.50;102562.00;;;;4895257;28;109055;-69
2023/02/14 04:27:10;;;;;;;8.30;4.93;;;5.70;99.90;5.50;102562.00;;;;4895700;28;109539;-69
2023/02/14 04:29:46;;;;;;;8.67;5.23;;;5.70;99.90;5.50;102565.00;;;;4899609;28;88576;-69
2023/02/14 04:32:17;;;;;;;11.07;5.37;;;5.60;99.90;5.50;102567.00;;;;4895512;28;88676;-69
2023/02/14 04:34:43;;;;;;;9.03;5.00;;;5.70;99.90;5.50;102556.00;;;;4897819;28;87942;-68
2023/02/14 04:37:09;;;;;;;8.50;4.83;;;6.50;99.90;5.50;102559.00;;;;4902679;28;91229;-69
2023/02/14 04:39:34;;;;;;;8.13;4.77;;;5.60;99.90;5.50;102548.00;;;;4896162;28;111405;-69
2023/02/14 04:42:01;;;;;;;5.93;4.63;;;5.70;99.90;5.50;102561.00;;;;4897760;28;117983;-68
2023/02/14 04:44:27;;;;;;;8.27;5.63;;;6.30;99.90;5.50;102551.00;;;;4895378;28;98077;-69
2023/02/14 04:46:53;;;;;;;7.40;5.00;;;6.20;99.90;5.50;102549.00;;;;4899330;28;88008;-69
2023/02/14 04:49:18;;;;;;;8.43;5.37;;;5.70;99.90;5.50;102545.00;;;;4908432;28;117843;-70
2023/02/14 04:51:44;;;;;;;6.27;4.53;;;5.70;99.90;5.40;102541.00;;;;4895803;28;105884;-70
2023/02/14 04:54:10;;;;;;;8.90;5.77;;;5.60;99.90;5.40;102545.00;;;;4896603;28;88187;-69
2023/02/14 04:56:36;;;;;;;6.57;4.23;;;5.50;99.90;5.40;102534.00;;;;4895468;28;108238;-69
2023/02/14 04:59:02;;;;;;;7.47;4.17;;;6.20;99.90;5.40;102544.00;;;;4907923;28;117846;-70
2023/02/14 05:01:28;;;;;;;10.10;6.00;;;5.80;99.90;5.40;102537.00;;;;4894222;28;107032;-69
2023/02/14 05:03:53;;;;;;;7.03;4.83;;;5.60;99.90;5.40;102540.00;;;;4896716;28;88137;-68
2023/02/14 05:06:19;;;;;;;7.80;5.33;;;5.60;99.90;5.30;102527.00;;;;4894200;28;108863;-69
2023/02/14 05:08:45;;;;;;;7.07;4.73;;;5.60;99.90;5.30;102524.00;;;;4892474;28;103876;-69
2023/02/14 05:11:10;;;;;;;5.10;4.07;;;5.70;99.90;5.30;102527.00;;;;4878816;28;117620;-69
2023/02/14 05:13:36;;;;;;;7.37;5.30;;;5.40;99.90;5.30;102527.00;;;;4895526;28;87964;-69
2023/02/14 05:16:02;;;;;;;6.63;5.07;;;5.40;99.90;5.20;102520.00;;;;4890587;28;107548;-69
2023/02/14 05:18:27;;;;;;;8.00;4.60;;;5.50;99.90;5.20;102521.00;;;;4895245;28;118738;-69
2023/02/14 05:20:53;;;;;;;10.13;4.93;;;5.30;99.90;5.20;102518.00;;;;4891933;28;118405;-68
2023/02/14 05:23:20;;;;;;;7.67;4.97;;;6.10;99.90;5.20;102520.00;;;;4892368;28;109823;-69
2023/02/14 05:25:50;;;;;;;6.93;4.77;;;6.00;99.90;5.20;102524.00;;;;4896767;28;86999;-69
2023/02/14 05:28:18;;;;;;;10.27;4.97;;;5.40;99.90;5.20;102524.00;;;;4912551;28;90771;-69
2023/02/14 05:30:44;;;;;;;7.93;5.13;;;5.90;99.90;5.20;102513.00;;;;4893547;28;108153;-69
2023/02/14 05:33:10;;;;;;;9.30;5.47;;;5.50;99.90;5.30;102524.00;;;;4893483;28;88723;-69
2023/02/14 05:35:35;;;;;;;7.93;5.07;;;5.40;99.90;5.30;102515.00;;;;4893992;28;108364;-69
2023/02/14 05:38:01;;;;;;;7.83;4.70;;;5.50;99.90;5.30;102511.00;;;;4894656;28;88376;-69
2023/02/14 05:40:27;;;;;;;7.03;5.23;;;5.50;99.90;5.30;102515.00;;;;4906815;28;87727;-69
2023/02/14 05:42:54;;;;;;;8.60;5.33;;;5.50;99.90;5.30;102519.00;;;;4893125;28;88639;-69
2023/02/14 05:45:21;;;;;;;6.97;4.47;;;6.30;99.90;5.30;102517.00;;;;4894926;28;87855;-71
2023/02/14 05:47:48;;;;;;;11.40;6.07;;;5.50;99.90;5.30;102517.00;;;;4895425;28;110111;-69
2023/02/14 05:50:15;;;;;;;7.03;5.07;;;5.40;99.90;5.30;102510.00;;;;4891879;28;88641;-68
2023/02/14 05:52:41;;;;;;;10.10;6.83;;;5.50;99.90;5.30;102518.00;;;;4895433;28;88026;-69
2023/02/14 05:55:07;;;;;;;9.13;6.27;;;5.90;99.90;5.30;102519.00;;;;4923543;28;108418;-69
2023/02/14 05:57:33;;;;;;;8.17;4.63;;;5.60;99.90;5.30;102517.00;;;;4893658;28;111065;-68
2023/02/14 05:59:58;;;;;;;8.80;6.03;;;5.50;99.90;5.30;102532.00;;;;4888899;28;117196;-69
2023/02/14 06:02:24;;;;;;;8.67;5.93;;;5.60;99.90;5.30;102526.00;;;;4894572;28;109853;-69
2023/02/14 06:04:50;;;;;;;9.90;6.00;;;5.50;99.90;5.30;102532.00;;;;4891830;28;109704;-69
2023/02/14 06:07:16;;;;;;;7.47;5.30;;;5.40;99.90;5.30;102529.00;;;;4892467;28;88930;-69
2023/02/14 06:09:42;;;;;;;9.53;5.30;;;5.40;99.90;5.30;102533.00;;;;4892714;28;107738;-69
2023/02/14 06:12:08;;;;;;;11.60;6.77;;;5.50;99.90;5.30;102527.00;;;;4892163;28;109746;-69
2023/02/14 06:14:34;;;;;;;9.87;5.57;;;5.50;99.90;5.30;102532.00;;;;4892999;28;89571;-69
2023/02/14 06:16:59;;;;;;;6.87;4.40;;;5.60;99.90;5.20;102526.00;;;;4891900;28;89129;-68
2023/02/14 06:19:25;;;;;;;10.43;5.37;;;5.50;99.90;5.20;102540.00;;;;4892770;28;118754;-69
2023/02/14 06:21:51;;;;;;;10.93;6.87;;;5.50;99.90;5.20;102547.00;;;;4892302;28;108973;-69
2023/02/14 06:24:17;;;;;;;8.17;6.40;;;5.40;99.90;5.20;102539.00;;;;4895690;28;108336;-69
2023/02/14 06:26:42;;;;;;;8.23;5.67;;;5.90;99.90;5.30;102538.00;;;;4898474;28;117490;-70
2023/02/14 06:29:08;;;;;;;11.20;6.43;;;5.80;99.90;5.30;102541.00;;;;4891668;28;116610;-69
2023/02/14 06:31:33;;;;;;;7.23;5.73;;;6.10;99.90;5.30;102540.00;;;;4891695;28;92450;-69
2023/02/14 06:33:59;;;;;;;10.70;5.87;;;5.40;99.90;5.20;102536.00;;;;4894883;28;109218;-69
2023/02/14 06:36:26;;;;;;;8.67;5.73;;;5.40;99.90;5.20;102548.00;;;;4890628;28;117918;-69
2023/02/14 06:38:52;;;;;;;9.00;5.83;;;5.50;99.90;5.20;102546.00;;;;4893857;28;87861;-70
2023/02/14 06:41:17;;;;;;;10.77;5.47;;;5.40;99.90;5.20;102545.00;;;;4892734;28;108328;-69
2023/02/14 06:43:47;;;;;;;9.83;5.97;;;6.00;99.90;5.20;102551.00;;;;4891919;28;109017;-69
2023/02/14 06:46:14;;;;;;;7.70;5.60;;;5.40;99.90;5.20;102553.00;;;;4897514;28;89540;-69
2023/02/14 06:48:40;;;;;;;7.47;5.33;;;6.10;99.90;5.20;102545.00;;;;4894015;28;88945;-69
2023/02/14 06:51:06;;;;;;;7.30;5.30;;;6.20;99.90;5.20;102556.00;;;;4896556;28;110602;-69
2023/02/14 06:53:31;;;;;;;10.83;6.57;;;5.40;99.90;5.20;102550.00;;;;4894517;28;109613;-69
2023/02/14 06:55:57;;;;;;;9.20;5.17;;;5.40;99.90;5.20;102556.00;;;;4891349;28;117508;-69
2023/02/14 06:58:23;;;;;;;7.97;5.47;;;5.90;99.90;5.20;102561.00;;;;4909769;28;117239;-69
2023/02/14 07:00:49;;;;;;;7.33;5.87;;;5.30;99.90;5.20;102543.00;;;;4907533;28;87824;-69
2023/02/14 07:03:14;;;;;;;8.57;5.23;;;5.40;99.90;5.30;102553.00;;;;4889337;28;108850;-69
2023/02/14 07:05:40;;;;;;;9.00;4.83;;;5.40;99.90;5.30;102549.00;;;;4891754;28;117081;-69
2023/02/14 07:08:07;;;;;;;7.40;4.87;;;5.40;99.90;5.30;102549.00;;;;4894721;28;87956;-70
2023/02/14 07:10:33;;;;;;;6.73;6.03;;;5.50;99.90;5.30;102548.00;;;;4922845;28;88734;-69
2023/02/14 07:12:59;;;;;;;6.53;5.03;;;5.80;99.90;5.30;102551.00;;;;4889580;28;87819;-69
2023/02/14 07:15:25;;;;;;;7.20;5.47;;;5.50;99.90;5.40;102538.00;;;;4895212;28;117553;-69
2023/02/14 07:17:51;;;;;;;6.50;5.03;;;5.70;99.90;5.40;102548.00;;;;4922990;28;107016;-69
2023/02/14 07:20:17;;;;;;;9.30;6.33;;;5.50;99.90;5.40;102548.00;;;;4891659;28;87930;-69
2023/02/14 07:22:43;;;;;;;8.43;5.73;;;5.50;99.90;5.40;102544.00;;;;4918960;28;87858;-69
2023/02/14 07:25:10;;;;;;;11.00;6.70;;;5.60;99.90;5.40;102545.00;;;;4887728;28;117356;-69
2023/02/14 07:27:36;;;;;;;6.27;5.37;;;5.60;99.90;5.50;102541.00;;;;4891583;28;99562;-69
2023/02/14 07:30:04;;;;;;;8.40;5.37;;;5.70;99.90;5.60;102546.00;;;;4893393;28;93499;-69
2023/02/14 07:32:30;;;;;;;13.20;6.90;;;5.70;99.90;5.60;102545.00;;;;4893143;28;88447;-70
2023/02/14 07:34:56;;;;;;;9.90;6.23;;;5.80;99.90;5.60;102536.00;;;;4886445;28;114630;-69
2023/02/14 07:37:22;;;;;;;11.43;7.13;;;6.50;99.90;5.70;102551.00;;;;4894185;28;118484;-69
2023/02/14 07:39:47;;;;;;;10.00;6.23;;;5.90;99.90;5.70;102554.00;;;;4890122;28;89142;-69
2023/02/14 07:42:13;;;;;;;10.87;6.40;;;6.30;99.90;5.70;102557.00;;;;4894224;28;108822;-69
2023/02/14 07:44:39;;;;;;;13.17;5.97;;;6.30;99.90;5.80;102553.00;;;;4893022;28;88077;-69
2023/02/14 07:47:07;;;;;;;10.13;6.40;;;6.60;99.90;5.80;102549.00;;;;4887250;28;88637;-69
2023/02/14 07:49:33;;;;;;;9.63;6.37;;;5.90;99.90;5.80;102550.00;;;;4905533;28;94077;-69
2023/02/14 07:51:59;;;;;;;9.93;5.60;;;5.90;99.90;5.80;102554.00;;;;4895844;28;95500;-69
2023/02/14 07:54:24;;;;;;;10.43;6.30;;;6.70;99.90;5.90;102553.00;;;;4890184;28;109671;-69
2023/02/14 07:56:50;;;;;;;10.00;6.40;;;6.40;99.90;5.90;102549.00;;;;4891324;28;117402;-69
2023/02/14 07:59:16;;;;;;;10.27;6.80;;;6.00;99.90;5.90;102553.00;;;;4890746;28;89165;-69
2023/02/14 08:01:42;;;;;;;13.93;7.13;;;6.10;99.90;6.00;102543.00;;;;4893461;28;108629;-69
2023/02/14 08:04:08;;;;;;;11.77;6.87;;;6.20;99.90;6.00;102540.00;;;;4891287;28;88942;-69
2023/02/14 08:06:34;;;;;;;12.00;6.70;;;6.60;99.90;6.10;102545.00;;;;4892711;28;112703;-69
2023/02/14 08:09:00;;;;;;;11.30;6.57;;;6.80;99.90;6.10;102538.00;;;;4890307;28;109600;-69
2023/02/14 08:14:10;;;;;;;7.63;6.27;;;6.30;99.90;6.10;102544.00;;;;4889810;28;87752;-69
2023/02/14 08:16:37;;;;;;;11.23;6.40;;;6.30;99.90;6.20;102537.00;;;;4894198;28;114509;-69
2023/02/14 08:19:03;;;;;;;10.90;7.13;;;6.40;99.90;6.30;102541.00;;;;4894339;28;89164;-69
2023/02/14 08:21:29;;;;;;;15.50;7.97;;;6.40;99.90;6.30;102545.00;;;;4895879;28;87625;-70
2023/02/14 08:23:55;;;;;;;10.87;7.17;;;6.50;99.90;6.40;102557.00;;;;4892828;28;118108;-69
2023/02/14 08:26:21;;;;;;;12.27;7.73;;;6.40;99.90;6.40;102557.00;;;;4894320;28;96936;-69
2023/02/14 08:28:47;;;;;;;13.37;7.33;;;7.10;99.90;6.50;102561.00;;;;4893065;28;109833;-69
2023/02/14 08:31:25;;;;;;;13.57;7.20;;;7.20;99.90;6.50;102548.00;;;;4892364;28;107760;-69
2023/02/14 08:33:51;;;;;;;8.93;6.23;;;6.80;99.90;6.50;102554.00;;;;4892389;28;88120;-69
2023/02/14 08:36:17;;;;;;;16.33;7.13;;;7.10;99.90;6.60;102559.00;;;;4891953;28;117540;-68
2023/02/14 08:38:46;;;;;;;8.10;6.67;;;6.70;99.90;6.60;102549.00;;;;4891441;28;87872;-69
2023/02/14 08:41:15;;;;;;;9.40;5.87;;;6.70;99.90;6.70;102560.00;;;;4894285;28;87119;-69
2023/02/14 08:43:42;;;;;;;10.83;6.57;;;7.00;99.90;6.70;102572.00;;;;4893136;28;87773;-69
2023/02/14 08:46:07;;;;;;;11.00;6.70;;;7.40;99.90;6.70;102568.00;;;;4892914;28;109433;-69
2023/02/14 08:48:34;;;;;;;8.97;5.83;;;6.80;99.90;6.80;102563.00;;;;4890739;28;108988;-69
2023/02/14 08:51:08;;;;;;;8.97;7.00;;;7.40;99.90;6.80;102568.00;;;;4889654;28;102459;-69
2023/02/14 08:53:34;;;;;;;6.33;5.43;;;6.90;99.90;6.90;102575.00;;;;4919726;28;88797;-70
2023/02/14 08:56:06;;;;;;;10.90;6.20;;;7.00;99.90;6.90;102565.00;;;;4887103;28;116746;-69
2023/02/14 08:58:32;;;;;;;9.27;6.93;;;7.00;99.90;6.90;102575.00;;;;4894143;28;88112;-69
2023/02/14 09:00:58;;;;;;;11.60;7.67;;;7.10;99.90;7.00;102570.00;;;;4896634;28;92715;-69
2023/02/14 09:03:24;;;;;;;9.53;6.27;;;7.70;99.90;7.00;102578.00;;;;4898405;28;87701;-69
2023/02/14 09:05:49;;;;;;;7.17;4.90;;;7.30;99.90;7.00;102581.00;;;;4895061;28;117591;-70
2023/02/14 09:08:15;;;;;;;9.13;5.90;;;7.70;99.90;7.00;102568.00;;;;4894105;28;110682;-69
2023/02/14 09:10:41;;;;;;;7.37;5.53;;;7.10;99.90;7.00;102571.00;;;;4894942;28;108376;-69
2023/02/14 09:13:06;;;;;;;7.30;5.47;;;7.10;99.90;7.10;102567.00;;;;4894692;28;107424;-69
2023/02/14 09:15:32;;;;;;;8.37;6.03;;;7.70;99.90;7.10;102558.00;;;;4877484;28;118625;-69
2023/02/14 09:17:57;;;;;;;9.40;6.47;;;7.20;99.90;7.10;102565.00;;;;4894759;28;110523;-70
2023/02/14 09:20:23;;;;;;;11.57;6.40;;;7.60;99.90;7.10;102561.00;;;;4895819;28;108413;-69
2023/02/14 09:22:49;;;;;;;11.37;6.27;;;7.20;99.90;7.20;102563.00;;;;4896228;28;117707;-69
2023/02/14 09:25:16;;;;;;;10.60;6.40;;;7.40;99.90;7.20;102572.00;;;;4897854;28;88115;-69
2023/02/14 09:27:42;;;;;;;10.57;7.53;;;7.30;99.90;7.30;102579.00;;;;4895399;28;87939;-69
2023/02/14 09:30:09;;;;;;;9.40;5.57;;;7.40;99.90;7.30;102582.00;;;;4923640;28;86946;-69
2023/02/14 09:32:35;;;;;;;12.17;6.70;;;7.40;99.90;7.40;102577.00;;;;4894854;28;99587;-69
2023/02/14 09:35:00;;;;;;;10.80;6.73;;;8.10;99.90;7.40;102584.00;;;;4893582;28;111014;-69
2023/02/14 09:37:26;;;;;;;9.10;6.23;;;7.60;99.90;7.40;102579.00;;;;4897360;28;110815;-69
2023/02/14 09:39:52;;;;;;;11.23;7.13;;;7.50;99.90;7.40;102585.00;;;;4879010;28;108458;-69
2023/02/14 09:42:52;;;;;;;10.40;6.20;;;7.60;99.90;7.40;102578.00;;;;4893883;28;118126;-69
2023/02/14 09:45:26;;;;;;;8.67;6.43;;;7.50;99.90;7.30;102589.00;;;;4896410;28;100586;-69
2023/02/14 09:48:28;;;;;;;6.90;5.10;;;7.50;99.90;7.30;102582.00;;;;4895436;28;87691;-69
2023/02/14 09:51:03;;;;;;;7.17;5.83;;;7.50;99.90;7.30;102580.00;;;;4897973;28;87943;-68
2023/02/14 09:53:34;;;;;;;7.43;4.93;;;7.40;99.90;7.30;102575.00;;;;4892359;28;109124;-68
2023/02/14 09:56:31;;;;;;;10.23;6.20;;;7.40;99.90;7.40;102576.00;;;;4899862;28;87224;-68
2023/02/14 09:59:16;;;;;;;8.07;6.23;;;7.50;99.90;7.40;102577.00;;;;4893720;28;88568;-68
2023/02/14 10:01:51;;;;;;;10.70;5.87;;;7.60;99.90;7.50;102581.00;;;;4894860;28;87944;-68
2023/02/14 10:04:41;;;;;;;9.40;6.73;;;7.60;99.90;7.50;102576.00;;;;4926006;28;111522;-68
2023/02/14 10:07:28;;;;;;;9.47;6.83;;;7.70;99.90;7.50;102578.00;;;;4907889;28;107720;-68
2023/02/14 10:10:11;;;;;;;12.43;6.70;;;7.60;99.90;7.50;102582.00;;;;4909078;28;102291;-68
2023/02/14 10:13:18;;;;;;;8.93;5.60;;;7.70;99.90;7.50;102582.00;;;;4893963;28;88034;-68
2023/02/14 10:15:48;;;;;;;8.47;5.70;;;7.60;99.90;7.50;102580.00;;;;4893679;28;88392;-68
2023/02/14 10:18:22;;;;;;;8.93;6.33;;;7.60;99.90;7.50;102581.00;;;;4909324;28;108993;-68
2023/02/14 10:20:57;;;;;;;10.17;6.07;;;7.60;99.90;7.40;102577.00;;;;4896740;28;103965;-68
2023/02/14 10:23:33;;;;;;;5.70;4.73;;;7.60;99.90;7.50;102582.00;;;;4911268;28;88646;-68
2023/02/14 10:26:11;;;;;;;7.60;5.60;;;7.60;99.90;7.50;102573.00;;;;4907998;28;103174;-68
2023/02/14 10:28:49;;;;;;;7.50;5.10;;;7.60;99.90;7.50;102573.00;;;;4908786;28;92441;-68
2023/02/14 10:31:54;;;;;;;9.77;5.23;;;7.70;99.90;7.50;102578.00;;;;4907612;28;88659;-68
2023/02/14 10:34:50;;;;;;;10.63;5.73;;;7.60;99.90;7.50;102571.00;;;;4905601;28;87860;-68
2023/02/14 10:37:39;;;;;;;9.57;5.73;;;7.60;99.90;7.50;102563.00;;;;4910128;28;88228;-68
2023/02/14 10:40:36;;;;;;;7.20;5.13;;;7.50;99.90;7.50;102568.00;;;;4894093;28;87788;-68
2023/02/14 10:43:18;;;;;;;10.67;5.97;;;7.60;99.90;7.50;102576.00;;;;4908573;28;103411;-68
2023/02/14 10:45:55;;;;;;;6.60;4.10;;;7.60;99.90;7.50;102564.00;;;;4893152;28;95868;-68
2023/02/14 10:48:38;;;;;;;7.57;5.20;;;7.60;99.90;7.50;102573.00;;;;4889561;28;110797;-68
2023/02/14 10:51:30;;;;;;;8.27;4.87;;;7.70;99.90;7.50;102567.00;;;;4925494;28;112273;-68
2023/02/14 10:54:21;;;;;;;7.10;5.37;;;7.60;99.90;7.50;102567.00;;;;4894786;28;87961;-68
2023/02/14 10:57:03;;;;;;;5.50;4.77;;;7.60;99.90;7.50;102562.00;;;;4907605;28;88099;-68
2023/02/14 10:59:39;;;;;;;8.17;5.07;;;7.60;99.90;7.50;102562.00;;;;4892227;28;105644;-67
2023/02/14 11:02:12;;;;;;;7.03;5.20;;;7.70;99.90;7.50;102574.00;;;;4907914;28;87935;-67
2023/02/14 11:04:38;;;;;;;8.57;5.90;;;7.60;99.90;7.60;102572.00;;;;4876006;28;88147;-68
2023/02/14 11:07:19;;;;;;;6.23;4.80;;;7.70;99.90;7.50;102564.00;;;;4893555;28;94723;-68
2023/02/14 11:09:45;;;;;;;10.43;7.00;;;7.70;99.90;7.50;102565.00;;;;4894221;28;88334;-67
2023/02/14 11:12:10;;;;;;;10.50;5.43;;;8.00;99.90;7.50;102569.00;;;;4897955;28;90676;-67
2023/02/14 11:14:39;;;;;;;7.60;4.53;;;7.70;99.90;7.50;102569.00;;;;4892221;28;110471;-67
2023/02/14 11:17:31;;;;;;;10.77;6.13;;;7.60;99.90;7.50;102568.00;;;;4895224;28;87003;-68
2023/02/14 11:20:08;;;;;;;11.40;5.90;;;7.60;99.90;7.50;102559.00;;;;4892197;28;87930;-69
2023/02/14 11:22:34;;;;;;;10.40;5.87;;;7.60;99.90;7.40;102556.00;;;;4893706;28;88661;-71
2023/02/14 11:25:16;;;;;;;12.00;7.13;;;7.60;99.90;7.40;102560.00;;;;4892806;28;93262;-73
2023/02/14 11:27:48;;;;;;;6.33;4.43;;;8.00;99.90;7.40;102565.00;;;;4893779;28;109046;-70
2023/02/14 11:30:33;;;;;;;10.53;6.60;;;7.50;99.90;7.40;102565.00;;;;4893139;28;89113;-71